createdAt,value
2023-05-19T00:04:50.591Z,87.94
2023-05-19T00:14:53.977Z,88.09
2023-05-19T00:24:57.118Z,88.09
2023-05-19T00:35:00.261Z,87.60
2023-05-19T00:45:03.585Z,87.30
2023-05-19T00:55:08.267Z,87.49
2023-05-19T01:05:12.116Z,87.22
2023-05-19T01:15:15.832Z,87.24
2023-05-19T01:25:30.866Z,87.62
2023-05-19T01:35:37.214Z,87.72
2023-05-19T01:45:40.841Z,87.77
2023-05-19T01:55:48.353Z,88.40
2023-05-19T02:06:36.572Z,88.76
2023-05-19T02:16:42.557Z,89.14
2023-05-19T02:26:46.550Z,89.61
2023-05-19T02:36:50.100Z,89.81
2023-05-19T02:46:53.386Z,89.88
2023-05-19T02:56:57.640Z,90.19
2023-05-19T03:07:00.723Z,90.33
2023-05-19T03:17:04.112Z,90.27
2023-05-19T03:27:07.559Z,89.94
2023-05-19T03:37:11.129Z,89.53
2023-05-19T03:47:14.692Z,89.17
2023-05-19T03:57:40.059Z,88.67
2023-05-19T04:07:46.919Z,88.18
2023-05-19T04:17:50.067Z,87.94
2023-05-19T04:27:57.901Z,88.17
2023-05-19T04:38:01.827Z,87.37
2023-05-19T04:48:07.108Z,86.94
2023-05-19T04:58:10.634Z,87.02
2023-05-19T05:08:16.299Z,86.77
2023-05-19T05:18:20.213Z,85.84
2023-05-19T05:28:23.850Z,85.49
2023-05-19T05:38:27.219Z,85.14
2023-05-19T05:48:30.957Z,84.24
2023-05-19T05:58:37.332Z,83.27
2023-05-19T06:08:40.972Z,83.31
2023-05-19T06:18:44.413Z,82.73
2023-05-19T06:28:47.653Z,81.96
2023-05-19T06:38:50.927Z,80.58
2023-05-19T06:48:54.046Z,80.24
2023-05-19T06:58:59.030Z,79.69
2023-05-19T07:09:06.675Z,79.97
2023-05-19T07:19:13.755Z,79.87
2023-05-19T07:29:17.119Z,79.36
2023-05-19T07:39:20.361Z,79.19
2023-05-19T07:49:23.613Z,79.24
2023-05-19T07:59:26.813Z,78.39
2023-05-19T08:09:30.073Z,78.16
2023-05-19T08:19:33.164Z,78.48
2023-05-19T08:29:36.859Z,77.98
2023-05-19T08:39:40.141Z,77.65
2023-05-19T08:49:45.708Z,75.77
2023-05-19T08:59:51.341Z,74.62
2023-05-19T09:09:54.422Z,73.25
2023-05-19T09:20:01.664Z,72.19
2023-05-19T09:30:09.388Z,71.05
2023-05-19T09:40:16.224Z,70.72
2023-05-19T09:50:19.359Z,70.07
2023-05-19T10:00:23.668Z,70.29
2023-05-19T10:10:27.838Z,70.89
2023-05-19T10:20:31.825Z,70.35
2023-05-19T10:30:40.206Z,70.45
2023-05-19T10:41:10.674Z,71.35
2023-05-19T10:51:15.035Z,71.57
2023-05-19T11:01:25.159Z,72.37
2023-05-19T11:11:48.291Z,73.49
2023-05-19T11:21:55.048Z,73.89
2023-05-19T11:31:59.526Z,74.22
2023-05-19T11:42:02.872Z,73.56
2023-05-19T11:52:06.787Z,74.13
2023-05-19T12:02:14.066Z,73.71
2023-05-19T12:12:18.880Z,73.62
2023-05-19T12:22:22.399Z,72.76
2023-05-19T12:32:28.997Z,72.50
2023-05-19T12:42:32.494Z,71.80
2023-05-19T12:52:47.186Z,71.58
2023-05-19T13:03:07.700Z,71.90
2023-05-19T13:13:12.222Z,71.89
2023-05-19T13:23:16.171Z,72.26
2023-05-19T13:33:19.629Z,72.70
2023-05-19T13:43:22.818Z,72.18
2023-05-19T13:53:27.038Z,72.53
2023-05-19T14:03:30.542Z,72.61
2023-05-19T14:13:37.220Z,73.66
2023-05-19T14:23:42.880Z,73.78
2023-05-19T14:37:44.443Z,73.88
2023-05-19T14:45:12.345Z,74.53
2023-05-19T14:55:20.522Z,74.87
2023-05-19T15:05:24.571Z,75.84
2023-05-19T15:15:27.684Z,76.60
2023-05-19T15:25:30.933Z,77.10
2023-05-19T15:46:44.776Z,77.92
2023-05-19T15:56:48.312Z,78.65
2023-05-19T16:07:13.340Z,78.25
2023-05-19T16:17:16.418Z,78.96
2023-05-19T16:38:19.541Z,80.00
2023-05-19T16:48:22.748Z,80.44
2023-05-19T16:58:27.943Z,81.06
2023-05-19T17:08:32.170Z,81.89
2023-05-19T17:18:37.598Z,82.48
2023-05-19T17:28:40.666Z,82.83
2023-05-19T17:38:43.846Z,83.06
2023-05-19T17:48:47.169Z,83.22
2023-05-19T17:58:50.972Z,83.29
2023-05-19T18:08:58.334Z,83.68
2023-05-19T18:19:02.060Z,84.20
2023-05-19T18:29:05.854Z,84.79
2023-05-19T18:39:09.501Z,85.16
2023-05-19T18:49:13.251Z,85.49
2023-05-19T18:59:16.723Z,85.37
2023-05-19T19:09:21.300Z,85.39
2023-05-19T19:19:28.426Z,85.49
2023-05-19T19:29:34.120Z,85.24
2023-05-19T19:39:39.670Z,85.12
2023-05-19T19:49:49.380Z,85.10
2023-05-19T19:59:56.715Z,85.19
2023-05-19T20:10:09.316Z,85.36
2023-05-19T20:20:15.938Z,85.35
2023-05-19T20:30:22.977Z,85.37
2023-05-19T20:40:26.095Z,85.70
2023-05-19T20:50:29.201Z,86.01
2023-05-19T21:00:32.652Z,86.48
2023-05-19T21:10:36.118Z,87.27
2023-05-19T21:20:40.033Z,87.59
2023-05-19T21:30:47.884Z,88.27
2023-05-19T21:40:51.377Z,88.62
2023-05-19T21:50:55.426Z,89.08
2023-05-19T22:00:59.538Z,89.19
2023-05-19T22:11:02.923Z,89.25
2023-05-19T22:21:06.448Z,89.04
2023-05-19T22:31:09.566Z,88.83
2023-05-19T22:41:12.804Z,88.92
2023-05-19T22:51:16.321Z,88.87
2023-05-19T23:01:19.462Z,88.98
2023-05-19T23:11:22.687Z,89.33
2023-05-19T23:21:25.811Z,89.23
2023-05-19T23:31:29.227Z,88.93
2023-05-19T23:41:32.393Z,89.00
2023-05-19T23:51:35.643Z,88.82
